Terminal Aerodrome Forecast
Issued by NWS Shreveport, LA

Home | Current Version | Previous Version | Text Only | Print | Product List | Glossary On
Versions: 1 2 3 4 5 6 7 8 9 10 11 12 13
944
FTUS44 KSHV 262341
TAFELD
TAF
KELD 262341Z 2700/2724 15009KT P6SM VCSH SCT070 OVC090
     FM270600 12006KT 5SM -SHRA VCTS BKN025 OVC035CB
     FM271200 09005KT 3SM TSRA BR BKN010 OVC020CB
     FM271800 13006KT P6SM VCTS BKN030 OVC040CB=

USA.gov is the U.S. government's official web portal to all federal, state and local government web resources and services.